Map

Track Data

SID SEASON NUMBER BASIN SUBBASIN NAME ISO_TIME NATURE LAT LON WMO_WIND WMO_PRES WMO_AGENCY TRACK_TYPE DIST2LAND LANDFALL IFLAG USA_AGENCY USA_ATCF_ID USA_LAT USA_LON USA_RECORD USA_STATUS USA_WIND USA_PRES USA_SSHS USA_R34_NE USA_R34_SE USA_R34_SW USA_R34_NW USA_R50_NE USA_R50_SE USA_R50_SW USA_R50_NW USA_R64_NE USA_R64_SE USA_R64_SW USA_R64_NW USA_POCI USA_ROCI USA_RMW USA_EYE TOKYO_LAT TOKYO_LON TOKYO_GRADE TOKYO_WIND TOKYO_PRES TOKYO_R50_DIR TOKYO_R50_LONG TOKYO_R50_SHORT TOKYO_R30_DIR TOKYO_R30_LONG TOKYO_R30_SHORT TOKYO_LAND CMA_LAT CMA_LON CMA_CAT CMA_WIND CMA_PRES HKO_LAT HKO_LON HKO_CAT HKO_WIND HKO_PRES NEWDELHI_LAT NEWDELHI_LON NEWDELHI_GRADE NEWDELHI_WIND NEWDELHI_PRES NEWDELHI_CI NEWDELHI_DP NEWDELHI_POCI REUNION_LAT REUNION_LON REUNION_TYPE REUNION_WIND REUNION_PRES REUNION_TNUM REUNION_CI REUNION_RMW REUNION_R34_NE REUNION_R34_SE REUNION_R34_SW REUNION_R34_NW REUNION_R50_NE REUNION_R50_SE REUNION_R50_SW REUNION_R50_NW REUNION_R64_NE REUNION_R64_SE REUNION_R64_SW REUNION_R64_NW BOM_LAT BOM_LON BOM_TYPE BOM_WIND BOM_PRES BOM_TNUM BOM_CI BOM_RMW BOM_R34_NE BOM_R34_SE BOM_R34_SW BOM_R34_NW BOM_R50_NE BOM_R50_SE BOM_R50_SW BOM_R50_NW BOM_R64_NE BOM_R64_SE BOM_R64_SW BOM_R64_NW BOM_ROCI BOM_POCI BOM_EYE BOM_POS_METHOD BOM_PRES_METHOD NADI_LAT NADI_LON NADI_CAT NADI_WIND NADI_PRES WELLINGTON_LAT WELLINGTON_LON WELLINGTON_WIND WELLINGTON_PRES DS824_LAT DS824_LON DS824_STAGE DS824_WIND DS824_PRES TD9636_LAT TD9636_LON TD9636_STAGE TD9636_WIND TD9636_PRES TD9635_LAT TD9635_LON TD9635_WIND TD9635_PRES TD9635_ROCI NEUMANN_LAT NEUMANN_LON NEUMANN_CLASS NEUMANN_WIND NEUMANN_PRES MLC_LAT MLC_LON MLC_CLASS MLC_WIND MLC_PRES USA_GUST BOM_GUST BOM_GUST_PER REUNION_GUST REUNION_GUST_PER USA_SEAHGT USA_SEARAD_NE USA_SEARAD_SE USA_SEARAD_SW USA_SEARAD_NW STORM_SPEED STORM_DIR
2002078N04138 2002 15 WP MM NOT_NAMED 2002-03-18 18:00:00 TS 4.00000 138.200 main 595 587 O_____________ jtwc_wp WP032002 4.00000 138.200 TD 25 1002 -1 1008 140 40 20 289
2002078N04138 2002 15 WP MM NOT_NAMED 2002-03-18 21:00:00 TS 4.32270 137.252 main 591 587 P_____________ WP032002 4.32270 137.252 TD 25 1002 -1 1008 140 40 20 290
2002078N04138 2002 15 WP MM NOT_NAMED 2002-03-19 00:00:00 TS 4.70000 136.300 main 610 608 O_____________ jtwc_wp WP032002 4.70000 136.300 TD 25 1002 -1 1008 140 40 21 294
2002078N04138 2002 15 WP MM NOT_NAMED 2002-03-19 03:00:00 TS 5.15748 135.355 main 661 661 P_____________ WP032002 5.15748 135.355 TD 25 1002 -1 1008 140 40 20 297
2002078N04138 2002 15 WP MM NOT_NAMED 2002-03-19 06:00:00 TS 5.60000 134.500 main 692 682 O_____________ jtwc_wp WP032002 5.60000 134.500 TD 25 1002 -1 1008 140 40 18 297
2002078N04138 2002 15 WP MM NOT_NAMED 2002-03-19 09:00:00 TS 5.94484 133.790 main 682 649 P_____________ WP032002 5.94484 133.790 TD 25 1002 -1 1008 140 40 14 295
2002078N04138 2002 15 WP MM NOT_NAMED 2002-03-19 12:00:00 TS 6.20000 133.200 main 649 622 O_____________ jtwc_wp WP032002 6.20000 133.200 TD 25 1002 -1 1008 140 40 12 292
2002078N04138 2002 15 WP MM NOT_NAMED 2002-03-19 15:00:00 TS 6.39485 132.685 main 622 599 P_____________ WP032002 6.39485 132.685 TD 25 1002 -1 1008 120 40 9 286
2002078N04138 2002 15 WP MM NOT_NAMED 2002-03-19 18:00:00 TS 6.46000 132.300 main 600 564 O_O___________ jtwc_wp WP032002 6.50000 132.200 TD 25 1002 -1 1008 100 40 6.30000 132.700 0 19 1005 9 279
2002078N04138 2002 15 WP MM NOT_NAMED 2002-03-19 21:00:00 TS 6.53005 131.780 main 564 525 P_P___________ WP032002 6.51499 131.650 TD 25 1002 -1 1008 100 40 6.56017 132.040 0 21 1004 11 279
2002078N04138 2002 15 WP MM NOT_NAMED 2002-03-20 00:00:00 TS 6.62857 131.229 main 514 456 O_O___________ jtwc_wp WP032002 6.50000 131.100 TD 25 1002 -1 1008 100 40 6.80000 131.400 1 23 1004 11 283
2002078N04138 2002 15 WP MM NOT_NAMED 2002-03-20 03:00:00 TS 6.77496 130.695 main 456 400 P_P___________ WP032002 6.54245 130.585 TD 27 1001 -1 1008 100 40 7.00747 130.805 1 26 1004 11 285
2002078N04138 2002 15 WP MM NOT_NAMED 2002-03-20 06:00:00 TS 6.90000 130.200 main 400 354 O_O___________ jtwc_wp WP032002 6.60000 130.100 TD 30 1000 -1 1008 100 40 7.20000 130.300 1 29 1004 9 286
2002078N04138 2002 15 WP MM NOT_NAMED 2002-03-20 09:00:00 TS 7.03240 129.785 main 354 309 P_P___________ WP032002 6.65748 129.628 TD 30 1000 -1 1007 100 40 7.40733 129.942 1 29 1004 8 287
2002078N04138 2002 15 WP MM NOT_NAMED 2002-03-20 12:00:00 TS 7.15000 129.400 main 309 265 O_O___________ jtwc_wp WP032002 6.70000 129.200 TD 30 1000 -1 1007 100 40 7.60000 129.600 1 29 1004 8 284
2002078N04138 2002 15 WP MM NOT_NAMED 2002-03-20 15:00:00 TS 7.22496 128.986 main 265 220 P_P___________ WP032002 6.68491 128.850 TD 30 1000 -1 1007 100 50 7.76501 129.122 1 29 1004 9 280
2002078N04138 2002 15 WP MM NOT_NAMED 2002-03-20 18:00:00 TS 7.30000 128.550 main 220 165 O_O___________ jtwc_wp WP032002 6.70000 128.500 TD 30 1000 -1 1007 100 60 7.90000 128.600 1 29 1004 9 282
2002078N04138 2002 15 WP MM NOT_NAMED 2002-03-20 21:00:00 TS 7.41745 128.086 main 165 110 P_P___________ WP032002 6.82000 128.065 TD 30 1000 -1 1006 100 60 8.01491 128.107 1 29 1004 10 285
2002078N04138 2002 15 WP MM NOT_NAMED 2002-03-21 00:00:00 TS 7.55000 127.600 main 110 55 O_O___________ jtwc_wp WP032002 7.00000 127.600 TD 30 1000 -1 1006 100 60 8.10000 127.600 1 29 1004 10 283
2002078N04138 2002 15 WP MM NOT_NAMED 2002-03-21 03:00:00 TS 7.64498 127.096 main 55 11 P_P___________ WP032002 7.16248 127.142 TD 30 1000 -1 1006 100 60 8.12749 127.050 1 29 1004 10 284
2002078N04138 2002 15 WP MM NOT_NAMED 2002-03-21 06:00:00 TS 7.80000 126.600 main 11 0 O_O___________ jtwc_wp WP032002 7.40000 126.700 TD 30 1000 -1 1006 100 60 8.20000 126.500 1 29 1004 11 295
2002078N04138 2002 15 WP MM NOT_NAMED 2002-03-21 09:00:00 TS 8.09122 126.128 main 0 0 P_P___________ WP032002 7.76992 126.300 TD 30 1001 -1 1006 100 60 8.41253 125.955 1 29 1004 11 306
2002078N04138 2002 15 WP MM NOT_NAMED 2002-03-21 12:00:00 TS 8.45000 125.700 main 0 0 O_O___________ jtwc_wp WP032002 8.20000 125.900 TD 30 1002 -1 1006 100 60 8.70000 125.500 1 29 1004 10 313
2002078N04138 2002 15 WP MM NOT_NAMED 2002-03-21 15:00:00 TS 8.79611 125.357 main 0 0 P_P___________ WP032002 8.60744 125.465 TD 27 1002 -1 1006 100 60 8.98478 125.250 1 29 1004 10 315
2002078N04138 2002 15 WP MM NOT_NAMED 2002-03-21 18:00:00 TS 9.15000 125.000 main 31 22 O_O___________ jtwc_wp WP032002 9.00000 125.000 TD 25 1002 -1 1006 100 60 9.30000 125.000 1 29 1004 11 311
2002078N04138 2002 15 WP MM NOT_NAMED 2002-03-21 21:00:00 TS 9.51876 124.523 main 24 0 P_P___________ WP032002 9.36496 124.507 TD 27 1001 -1 1006 100 60 9.67256 124.538 1 29 1004 12 305
2002078N04138 2002 15 WP MM NOT_NAMED 2002-03-22 00:00:00 TS 9.85000 124.000 main 0 0 O_O___________ jtwc_wp WP032002 9.70000 124.000 TD 30 1000 -1 1006 100 60 10.0000 124.000 1 29 1004 12 300
2002078N04138 2002 15 WP MM NOT_NAMED 2002-03-22 03:00:00 TS 10.0937 123.500 main 0 0 P_P___________ WP032002 10.0149 123.515 TD 30 1000 -1 1006 100 60 10.1725 123.485 1 29 1004 11 295
2002078N04138 2002 15 WP MM NOT_NAMED 2002-03-22 06:00:00 TS 10.3000 123.000 main 0 0 O_O___________ jtwc_wp WP032002 10.3000 123.000 TD 30 1000 -1 1006 100 60 10.3000 123.000 1 29 1004 11 295
2002078N04138 2002 15 WP MM NOT_NAMED 2002-03-22 09:00:00 TS 10.5398 122.530 main 22 0 P_P___________ WP032002 10.5799 122.423 TD 30 1000 -1 1006 100 60 10.4996 122.637 1 29 1004 11 295
2002078N04138 2002 15 WP MM NOT_NAMED 2002-03-22 12:00:00 TS 10.7500 122.000 main 0 0 O_O___________ jtwc_wp WP032002 10.8000 121.800 TD 30 1000 -1 1006 100 60 10.7000 122.200 1 29 1004 12 287
2002078N04138 2002 15 WP MM NOT_NAMED 2002-03-22 15:00:00 TS 10.8938 121.322 main 66 66 P_P___________ WP032002 10.9300 121.150 TD 30 1000 -1 1006 100 55 10.8577 121.495 1 29 1004 14 280
2002078N04138 2002 15 WP MM NOT_NAMED 2002-03-22 18:00:00 TS 11.0000 120.600 main 109 45 O_O___________ jtwc_wp WP032002 11.0000 120.500 TD 30 1000 -1 1006 100 50 11.0000 120.700 1 29 1004 14 279
2002078N04138 2002 15 WP MM NOT_NAMED 2002-03-22 21:00:00 TS 11.1148 119.939 main 34 0 P_P___________ WP032002 11.0573 119.892 TD 30 1000 -1 1006 100 47 11.1723 119.985 1 26 1004 13 279
2002078N04138 2002 15 WP MM NOT_NAMED 2002-03-23 00:00:00 TS 11.2000 119.300 main 10 10 O_O___________ jtwc_wp WP032002 11.1000 119.300 TD 30 1000 -1 1006 100 45 11.3000 119.300 1 23 1004 13 276
2002078N04138 2002 15 WP MM NOT_NAMED 2002-03-23 03:00:00 TS 11.2398 118.671 main 73 73 P_P___________ WP032002 11.1574 118.700 TD 30 1000 -1 1006 100 45 11.3223 118.642 1 23 1004 12 272
2002078N04138 2002 15 WP MM NOT_NAMED 2002-03-23 06:00:00 TS 11.2429 118.057 main 135 135 O_O___________ jtwc_wp WP032002 11.2000 118.100 TD 30 1000 -1 1007 100 45 11.3000 118.000 1 23 1004 12 270
2002078N04138 2002 15 WP MM NOT_NAMED 2002-03-23 09:00:00 TS 11.2359 117.446 main 196 196 P_P___________ WP032002 11.2074 117.492 TD 30 1000 -1 1006 110 45 11.2928 117.353 1 23 1004 12 269
2002078N04138 2002 15 WP MM NOT_NAMED 2002-03-23 12:00:00 TS 11.2200 116.860 main 241 241 O_O___________ jtwc_wp WP032002 11.2000 116.900 TD 30 1000 -1 1006 120 45 11.3000 116.700 1 23 1004 11 267
2002078N04138 2002 15 WP MM NOT_NAMED 2002-03-23 15:00:00 TS 11.1849 116.342 main 277 277 P_____________ WP032002 11.1849 116.342 TD 30 1000 -1 1006 120 45 1 10 269
2002078N04138 2002 15 WP MM NOT_NAMED 2002-03-23 18:00:00 TS 11.2000 115.800 main 313 313 O_____________ jtwc_wp WP032002 11.2000 115.800 TD 30 1000 -1 1006 120 45 11 274
2002078N04138 2002 15 WP MM NOT_NAMED 2002-03-23 21:00:00 TS 11.2551 115.212 main 368 368 P_____________ WP032002 11.2551 115.212 TD 30 1000 -1 1006 120 45 11 280
2002078N04138 2002 15 WP MM NOT_NAMED 2002-03-24 00:00:00 TS 11.4000 114.700 main 415 415 O_____________ jtwc_wp WP032002 11.4000 114.700 TD 30 1000 -1 1006 120 45 9 295
2002078N04138 2002 15 WP MM NOT_NAMED 2002-03-24 03:00:00 TS 11.6549 114.340 main 470 470 P_____________ WP032002 11.6549 114.340 TD 27 1001 -1 1007 120 45 8 316
2002078N04138 2002 15 WP MM NOT_NAMED 2002-03-24 06:00:00 TS 12.0000 114.100 main 504 478 O_____________ jtwc_wp WP032002 12.0000 114.100 TD 25 1002 -1 1008 120 45 9 331
2002078N04138 2002 15 WP MM NOT_NAMED 2002-03-24 09:00:00 TS 12.4075 113.920 main 478 466 P_____________ WP032002 12.4075 113.920 TD 25 1002 -1 1007 120 37 9 340
2002078N04138 2002 15 WP MM NOT_NAMED 2002-03-24 12:00:00 TS 12.8000 113.800 main 466 455 O_____________ jtwc_wp WP032002 12.8000 113.800 TD 25 1002 -1 1007 120 30 7 341
2002078N04138 2002 15 WP MM NOT_NAMED 2002-03-24 15:00:00 TS 13.0725 113.685 main 455 445 P_____________ WP032002 13.0725 113.685 TD 22 1003 -1 5 339
2002078N04138 2002 15 WP MM NOT_NAMED 2002-03-24 18:00:00 TS 13.3000 113.600 main 446 446 O_____________ jtwc_wp WP032002 13.3000 113.600 TD 20 1004 -1 5 345
2002078N04138 2002 15 WP MM NOT_NAMED 2002-03-24 21:00:00 TS 13.5575 113.550 main 440 440 P_____________ WP032002 13.5575 113.550 TD 20 1004 -1 5 349
2002078N04138 2002 15 WP MM NOT_NAMED 2002-03-25 00:00:00 TS 13.8000 113.500 main 444 436 O_____________ jtwc_wp WP032002 13.8000 113.500 TD 20 1004 -1 5 344
2002078N04138 2002 15 WP MM NOT_NAMED 2002-03-25 03:00:00 TS 14.0100 113.413 main 439 432 P_____________ WP032002 14.0100 113.413 TD 20 1004 -1 4 334
2002078N04138 2002 15 WP MM NOT_NAMED 2002-03-25 06:00:00 TS 14.2000 113.300 main 432 O_____________ jtwc_wp WP032002 14.2000 113.300 TD 20 1004 -1 4 330

Digital Typhoon Data and Search

About IBTrACS Database

This database is a web-friendly format of International Best Track Archive for Climate Stewardship (IBTrACS), a global best track data archive curated by NOAA dating back to 1842.

Updated: 2021-10-27